Time;durP1;ratioP1;P1;durP2;ratioP2;P2;SDS_P1;SDS_P2;PMS_P1;PMS_P2;Temp;Humidity;BMP_temperature;BMP_pressure;BME280_temperature;BME280_humidity;BME280_pressure;Samples;Min_cycle;Max_cycle;Signal;HPM_P1;HPM_P2
2022/10/14 00:00:17;;;;;;;26.07;20.33;;;13.60;84.50;;;;;;5090576;28;20184;-57
2022/10/14 00:02:42;;;;;;;27.13;20.40;;;13.50;84.20;;;;;;5083117;28;20180;-57
2022/10/14 00:05:09;;;;;;;26.27;21.10;;;13.50;84.30;;;;;;5079435;28;20200;-58
2022/10/14 00:07:35;;;;;;;29.33;20.97;;;13.40;84.40;;;;;;5082628;28;20193;-57
2022/10/14 00:10:01;;;;;;;25.40;20.20;;;13.40;84.60;;;;;;5061431;28;20201;-56
2022/10/14 00:12:28;;;;;;;27.37;21.40;;;13.40;84.30;;;;;;5090959;28;20184;-57
2022/10/14 00:14:55;;;;;;;30.37;21.37;;;13.30;84.50;;;;;;5094248;28;20204;-57
2022/10/14 00:17:21;;;;;;;27.27;20.47;;;13.30;84.80;;;;;;5089364;28;20181;-56
2022/10/14 00:19:47;;;;;;;26.90;18.63;;;13.30;84.50;;;;;;5065507;28;20193;-56
2022/10/14 00:22:12;;;;;;;26.33;19.83;;;13.20;84.60;;;;;;5072932;28;20188;-56
2022/10/14 00:24:39;;;;;;;31.23;20.60;;;13.20;84.30;;;;;;5080565;28;20185;-57
2022/10/14 00:27:05;;;;;;;22.50;18.27;;;13.30;84.30;;;;;;5092542;28;20185;-57
2022/10/14 00:29:30;;;;;;;25.53;18.60;;;13.20;84.20;;;;;;5084777;28;20187;-57
2022/10/14 00:31:56;;;;;;;28.17;19.70;;;13.20;84.10;;;;;;5088212;28;20277;-57
2022/10/14 00:34:22;;;;;;;25.97;18.87;;;13.10;84.20;;;;;;5115197;27;20196;-57
2022/10/14 00:36:47;;;;;;;26.40;18.53;;;13.10;84.20;;;;;;5085945;28;20199;-54
2022/10/14 00:39:13;;;;;;;26.70;16.80;;;13.00;84.10;;;;;;5083110;28;20244;-57
2022/10/14 00:41:39;;;;;;;27.00;18.07;;;13.00;84.20;;;;;;5098878;28;20185;-57
2022/10/14 00:44:26;;;;;;;28.27;18.90;;;13.00;84.20;;;;;;5080980;28;20269;-57
2022/10/14 00:46:53;;;;;;;25.17;18.10;;;12.90;84.50;;;;;;5090480;28;20181;-57
2022/10/14 00:49:33;;;;;;;26.17;17.27;;;12.80;84.40;;;;;;5095272;28;20180;-58
2022/10/14 00:52:25;;;;;;;24.17;17.53;;;12.90;84.50;;;;;;5098080;28;20182;-57
2022/10/14 00:55:01;;;;;;;23.43;17.73;;;12.80;84.50;;;;;;5099186;28;20289;-57
2022/10/14 00:57:27;;;;;;;30.30;18.97;;;12.80;84.40;;;;;;5096730;28;20184;-57
2022/10/14 01:00:00;;;;;;;30.37;18.27;;;12.80;84.10;;;;;;5072667;28;20189;-57
2022/10/14 01:02:25;;;;;;;29.50;18.37;;;12.70;84.20;;;;;;5098050;28;20193;-56
2022/10/14 01:04:51;;;;;;;25.00;17.27;;;12.60;84.20;;;;;;5088821;28;20192;-57
2022/10/14 01:08:04;;;;;;;23.53;17.43;;;12.60;84.10;;;;;;5096576;28;20189;-57
2022/10/14 01:11:02;;;;;;;23.67;18.63;;;12.50;84.10;;;;;;5110764;28;20287;-56
2022/10/14 01:13:39;;;;;;;19.83;17.73;;;12.50;84.20;;;;;;5085910;28;20197;-57
2022/10/14 01:16:29;;;;;;;28.83;18.37;;;12.50;84.20;;;;;;5096999;28;20224;-57
2022/10/14 01:19:14;;;;;;;19.37;16.50;;;12.40;84.30;;;;;;5082968;28;20188;-58
2022/10/14 01:21:43;;;;;;;21.33;18.07;;;12.40;84.30;;;;;;5084886;28;20209;-57
2022/10/14 01:24:26;;;;;;;25.47;17.87;;;12.40;84.40;;;;;;5088101;28;20192;-57
2022/10/14 01:27:08;;;;;;;26.23;17.57;;;12.40;84.30;;;;;;5097258;28;20199;-57
2022/10/14 01:30:13;;;;;;;28.80;17.43;;;12.40;84.50;;;;;;5112187;28;20180;-57
2022/10/14 01:32:54;;;;;;;24.40;17.60;;;12.30;84.20;;;;;;5113899;28;20233;-54
2022/10/14 01:36:04;;;;;;;33.67;19.83;;;12.10;85.20;;;;;;5094096;28;20200;-55
2022/10/14 01:39:07;;;;;;;21.20;18.23;;;12.10;85.20;;;;;;5084052;28;20204;-55
2022/10/14 01:41:38;;;;;;;25.20;17.80;;;12.00;85.00;;;;;;5111717;28;20192;-57
2022/10/14 01:44:09;;;;;;;23.00;17.87;;;12.10;84.90;;;;;;5114948;28;20205;-58
2022/10/14 01:46:38;;;;;;;28.47;18.10;;;12.10;84.80;;;;;;5081657;28;20188;-56
2022/10/14 01:49:09;;;;;;;23.50;16.30;;;12.00;84.60;;;;;;5086745;28;20181;-56
2022/10/14 01:51:41;;;;;;;23.20;17.83;;;12.00;84.70;;;;;;5114098;28;20172;-56
2022/10/14 01:54:13;;;;;;;25.57;18.00;;;12.00;84.90;;;;;;5092198;28;20195;-58
2022/10/14 01:56:41;;;;;;;31.87;18.43;;;12.00;84.80;;;;;;5094889;28;20227;-58
2022/10/14 01:59:10;;;;;;;21.57;17.93;;;11.90;84.80;;;;;;5093892;28;20189;-55
2022/10/14 02:01:36;;;;;;;22.50;17.37;;;11.90;84.50;;;;;;5108873;28;20219;-57
2022/10/14 02:04:02;;;;;;;25.07;18.93;;;11.90;84.50;;;;;;5088850;28;20264;-57
2022/10/14 02:06:38;;;;;;;26.40;18.47;;;11.90;84.70;;;;;;5084421;28;20303;-57
2022/10/14 02:09:23;;;;;;;22.53;17.67;;;11.80;84.70;;;;;;5088472;28;20180;-57
2022/10/14 02:12:21;;;;;;;22.30;16.80;;;11.90;84.70;;;;;;5089856;28;20187;-57
2022/10/14 02:14:58;;;;;;;23.10;17.33;;;11.90;84.80;;;;;;5087675;28;20201;-56
2022/10/14 02:17:39;;;;;;;26.27;17.90;;;11.80;85.00;;;;;;5091336;28;20180;-58
2022/10/14 02:20:17;;;;;;;30.47;19.07;;;11.70;84.80;;;;;;5083069;28;20187;-58
2022/10/14 02:22:53;;;;;;;27.23;17.37;;;11.60;84.90;;;;;;5106461;28;20275;-58
2022/10/14 02:25:30;;;;;;;24.10;17.73;;;11.70;85.00;;;;;;5101102;28;20206;-57
2022/10/14 02:27:58;;;;;;;26.20;17.03;;;11.70;84.90;;;;;;5112937;28;20701;-57
2022/10/14 02:30:28;;;;;;;22.10;17.03;;;11.80;84.80;;;;;;5092542;28;20176;-57
2022/10/14 02:32:57;;;;;;;25.93;17.13;;;11.80;84.60;;;;;;5095535;28;20180;-58
2022/10/14 02:35:24;;;;;;;25.73;17.37;;;11.70;84.50;;;;;;5113292;27;20208;-56
2022/10/14 02:37:52;;;;;;;24.63;18.23;;;11.80;84.60;;;;;;5091073;28;20188;-58
2022/10/14 02:40:41;;;;;;;22.87;17.70;;;11.80;84.70;;;;;;5114483;28;20232;-58
2022/10/14 02:43:09;;;;;;;24.13;17.83;;;11.80;84.70;;;;;;5106951;28;20172;-58
2022/10/14 02:45:36;;;;;;;23.03;16.73;;;11.80;84.40;;;;;;5074237;28;20185;-58
2022/10/14 02:48:02;;;;;;;25.10;18.67;;;11.70;84.10;;;;;;5091828;28;20186;-58
2022/10/14 02:50:28;;;;;;;26.93;18.10;;;11.60;84.10;;;;;;5078884;28;20562;-57
2022/10/14 02:52:54;;;;;;;25.70;17.73;;;11.60;84.30;;;;;;5089280;28;20678;-56
2022/10/14 02:55:20;;;;;;;28.20;18.67;;;11.60;84.20;;;;;;5076544;28;20292;-56
2022/10/14 02:57:45;;;;;;;29.97;17.87;;;11.50;84.20;;;;;;5095031;28;20177;-57
2022/10/14 03:00:12;;;;;;;27.17;17.60;;;11.50;84.40;;;;;;5076203;28;20177;-56
2022/10/14 03:02:37;;;;;;;25.17;17.33;;;11.50;84.40;;;;;;5093895;28;20224;-56
2022/10/14 03:05:03;;;;;;;23.07;18.70;;;11.50;84.30;;;;;;5091469;28;20241;-55
2022/10/14 03:07:29;;;;;;;23.90;17.53;;;11.40;84.50;;;;;;5068853;28;20188;-55
2022/10/14 03:09:55;;;;;;;23.93;17.27;;;11.50;84.30;;;;;;5082146;28;20343;-53
2022/10/14 03:12:21;;;;;;;24.03;18.13;;;11.40;84.30;;;;;;5078302;28;20194;-55
2022/10/14 03:14:46;;;;;;;25.03;17.37;;;11.30;84.60;;;;;;5084970;28;20209;-55
2022/10/14 03:17:12;;;;;;;28.37;17.70;;;11.30;84.50;;;;;;5071651;28;20275;-56
2022/10/14 03:19:38;;;;;;;27.60;16.93;;;11.30;84.40;;;;;;5077154;28;20230;-55
2022/10/14 03:22:04;;;;;;;28.77;18.70;;;11.30;84.40;;;;;;5061115;28;20180;-55
2022/10/14 03:24:29;;;;;;;24.43;17.63;;;11.30;84.70;;;;;;5089811;28;20268;-57
2022/10/14 03:26:55;;;;;;;30.03;18.37;;;11.30;84.70;;;;;;5072344;28;20210;-57
2022/10/14 03:29:21;;;;;;;22.30;16.40;;;11.20;84.80;;;;;;4984093;28;20192;-56
2022/10/14 03:31:46;;;;;;;21.33;17.20;;;11.20;85.00;;;;;;5071979;28;20188;-57
2022/10/14 03:34:12;;;;;;;27.70;19.13;;;11.20;84.80;;;;;;5096132;28;20176;-56
2022/10/14 03:36:37;;;;;;;23.57;18.10;;;11.20;84.80;;;;;;5062026;28;20211;-57
2022/10/14 03:39:03;;;;;;;24.37;16.93;;;11.20;85.10;;;;;;5072258;28;20225;-57
2022/10/14 03:41:29;;;;;;;22.47;17.27;;;11.20;84.80;;;;;;5059882;28;20212;-57
2022/10/14 03:43:55;;;;;;;24.07;18.60;;;11.20;84.70;;;;;;5092503;28;20265;-57
2022/10/14 03:46:20;;;;;;;27.10;17.10;;;11.10;84.40;;;;;;5070369;28;20213;-57
2022/10/14 03:48:46;;;;;;;21.33;17.53;;;11.10;84.60;;;;;;5059362;28;20205;-57
2022/10/14 03:51:12;;;;;;;21.03;16.73;;;11.10;84.70;;;;;;5087139;28;20180;-57
2022/10/14 03:53:37;;;;;;;25.03;17.97;;;11.10;84.60;;;;;;5090666;28;20208;-56
2022/10/14 03:56:03;;;;;;;22.37;18.30;;;11.00;84.60;;;;;;5073103;28;20220;-57
2022/10/14 03:58:29;;;;;;;22.07;17.47;;;11.00;84.70;;;;;;5082631;28;20268;-56
2022/10/14 04:00:55;;;;;;;23.80;17.43;;;11.00;84.60;;;;;;5075261;28;20284;-54
2022/10/14 04:03:20;;;;;;;23.83;17.50;;;11.00;84.50;;;;;;5055841;28;20184;-53
2022/10/14 04:05:46;;;;;;;26.70;18.07;;;11.00;84.60;;;;;;5065438;28;20204;-53
2022/10/14 04:08:12;;;;;;;23.33;16.60;;;11.00;84.40;;;;;;5060322;28;20646;-57
2022/10/14 04:10:37;;;;;;;27.13;17.13;;;11.00;84.20;;;;;;5077585;28;20191;-57
2022/10/14 04:13:03;;;;;;;27.10;17.73;;;10.90;84.30;;;;;;5080571;28;20195;-56
2022/10/14 04:15:29;;;;;;;22.27;16.03;;;10.80;84.50;;;;;;5093588;28;20212;-57
2022/10/14 04:17:55;;;;;;;22.93;16.57;;;10.80;84.60;;;;;;5096111;28;20184;-58
2022/10/14 04:20:21;;;;;;;27.37;17.63;;;10.80;84.60;;;;;;5081800;28;20256;-56
2022/10/14 04:22:47;;;;;;;27.27;18.17;;;10.80;84.50;;;;;;5084526;28;20237;-57
2022/10/14 04:25:13;;;;;;;24.73;17.60;;;10.80;84.30;;;;;;5065457;28;20224;-57
2022/10/14 04:27:38;;;;;;;26.37;17.87;;;10.70;84.20;;;;;;5082817;28;20195;-56
2022/10/14 04:30:04;;;;;;;23.03;16.87;;;10.70;84.30;;;;;;5078149;28;20184;-57
2022/10/14 04:32:30;;;;;;;20.70;16.13;;;10.70;84.40;;;;;;5113139;28;20185;-55
2022/10/14 04:34:56;;;;;;;20.83;15.33;;;10.70;84.50;;;;;;5081545;28;20211;-56
2022/10/14 04:37:22;;;;;;;21.57;16.97;;;10.70;84.40;;;;;;5072377;28;20193;-58
2022/10/14 04:39:47;;;;;;;23.03;16.80;;;10.80;84.60;;;;;;5075061;28;20261;-57
2022/10/14 04:42:13;;;;;;;23.23;16.63;;;10.80;84.50;;;;;;5050795;28;20198;-54
2022/10/14 04:44:39;;;;;;;22.37;16.40;;;10.80;84.30;;;;;;5061911;28;20239;-57
2022/10/14 04:47:05;;;;;;;22.27;15.93;;;10.80;84.10;;;;;;5049223;28;20190;-55
2022/10/14 04:49:31;;;;;;;21.87;16.13;;;10.80;84.20;;;;;;5057252;28;20200;-57
2022/10/14 04:51:57;;;;;;;25.83;17.80;;;10.80;84.20;;;;;;5043903;28;20190;-56
2022/10/14 04:54:22;;;;;;;21.80;17.30;;;10.80;84.20;;;;;;5070157;28;20210;-55
2022/10/14 04:56:48;;;;;;;24.00;16.13;;;10.80;84.40;;;;;;5064729;28;20209;-57
2022/10/14 04:59:14;;;;;;;21.30;16.10;;;10.80;84.10;;;;;;5095856;28;20213;-51
2022/10/14 05:01:39;;;;;;;21.83;16.73;;;10.70;83.90;;;;;;5048653;28;20197;-56
2022/10/14 05:04:05;;;;;;;22.40;16.97;;;10.70;84.10;;;;;;5073913;28;20186;-57
2022/10/14 05:06:31;;;;;;;23.63;17.50;;;10.70;84.00;;;;;;5053670;28;20293;-55
2022/10/14 05:08:57;;;;;;;24.17;16.53;;;10.70;83.90;;;;;;5072815;28;20194;-56
2022/10/14 05:11:22;;;;;;;21.13;16.53;;;10.70;83.80;;;;;;5049406;28;20261;-56
2022/10/14 05:13:48;;;;;;;23.43;16.73;;;10.70;83.80;;;;;;5062858;28;20217;-57
2022/10/14 05:16:14;;;;;;;24.17;16.53;;;10.70;83.90;;;;;;5059552;28;20248;-55
2022/10/14 05:18:39;;;;;;;18.83;15.87;;;10.60;83.90;;;;;;5059336;28;20197;-54
2022/10/14 05:21:05;;;;;;;23.07;16.90;;;10.60;84.00;;;;;;5065417;28;20276;-53
2022/10/14 05:23:31;;;;;;;27.23;16.33;;;10.60;83.90;;;;;;5069849;28;20190;-53
2022/10/14 05:25:56;;;;;;;25.43;16.43;;;10.40;84.10;;;;;;5053755;28;20280;-57
2022/10/14 05:28:22;;;;;;;21.77;17.23;;;10.40;84.40;;;;;;5088007;28;20338;-55
2022/10/14 05:30:48;;;;;;;24.23;16.40;;;10.40;84.30;;;;;;5060977;28;20189;-57
2022/10/14 05:33:14;;;;;;;21.63;16.40;;;10.50;84.50;;;;;;5061242;28;20189;-53
2022/10/14 05:35:41;;;;;;;25.93;17.20;;;10.50;84.20;;;;;;5045085;28;20202;-53
2022/10/14 05:38:07;;;;;;;25.40;16.80;;;10.60;84.10;;;;;;5056105;28;20198;-56
2022/10/14 05:40:32;;;;;;;23.17;16.13;;;10.50;84.10;;;;;;5046571;28;20331;-54
2022/10/14 05:42:58;;;;;;;21.93;15.70;;;10.50;83.90;;;;;;5038481;28;20219;-53
2022/10/14 05:45:25;;;;;;;23.43;17.07;;;10.50;83.80;;;;;;5056346;28;20193;-53
2022/10/14 05:47:51;;;;;;;20.27;17.70;;;10.50;84.10;;;;;;5077087;28;20189;-54
2022/10/14 05:50:16;;;;;;;20.83;16.27;;;10.60;84.00;;;;;;5055421;28;20188;-53
2022/10/14 05:52:43;;;;;;;21.77;16.77;;;10.60;83.80;;;;;;5038692;28;20216;-53
2022/10/14 05:55:09;;;;;;;19.30;15.73;;;10.50;83.70;;;;;;5040229;28;20224;-55
2022/10/14 05:57:35;;;;;;;19.20;14.43;;;10.50;84.10;;;;;;5053931;28;20190;-55
2022/10/14 06:00:02;;;;;;;20.10;15.60;;;10.60;84.20;;;;;;5092688;28;20189;-53
2022/10/14 06:02:29;;;;;;;22.87;16.23;;;10.60;84.10;;;;;;5050054;28;20207;-57
2022/10/14 06:04:55;;;;;;;23.63;16.67;;;10.60;84.20;;;;;;5073463;28;20201;-55
2022/10/14 06:07:20;;;;;;;20.33;16.37;;;10.60;84.30;;;;;;5076133;28;20191;-56
2022/10/14 06:09:46;;;;;;;23.53;16.37;;;10.70;84.50;;;;;;5072127;28;20224;-56
2022/10/14 06:12:12;;;;;;;20.87;17.00;;;10.70;84.80;;;;;;5053736;28;20243;-53
2022/10/14 06:14:38;;;;;;;25.50;16.37;;;10.80;85.30;;;;;;5062676;28;20198;-56
2022/10/14 06:17:04;;;;;;;25.47;16.33;;;10.80;85.10;;;;;;5062548;28;20196;-53
2022/10/14 06:19:31;;;;;;;20.87;16.53;;;10.90;84.90;;;;;;5074441;28;20197;-54
2022/10/14 06:21:57;;;;;;;20.07;16.40;;;10.90;84.70;;;;;;5064115;28;20185;-55
2022/10/14 06:24:23;;;;;;;22.30;15.47;;;10.90;84.70;;;;;;5056389;28;20243;-55
2022/10/14 06:26:48;;;;;;;21.90;16.13;;;10.90;84.80;;;;;;5054065;28;20208;-53
2022/10/14 06:29:15;;;;;;;20.23;16.77;;;10.90;84.70;;;;;;5077108;28;20294;-55
2022/10/14 06:31:41;;;;;;;22.07;15.80;;;10.90;84.70;;;;;;5058908;28;20189;-54
2022/10/14 06:34:07;;;;;;;21.23;15.47;;;10.90;84.80;;;;;;5059537;28;20189;-56
2022/10/14 06:36:34;;;;;;;23.97;16.43;;;10.90;84.90;;;;;;5072808;28;20210;-52
2022/10/14 06:39:00;;;;;;;23.57;17.47;;;11.00;84.90;;;;;;5072255;28;20221;-56
2022/10/14 06:41:25;;;;;;;25.77;17.03;;;11.00;84.90;;;;;;5055899;28;20254;-54
2022/10/14 06:43:51;;;;;;;26.00;17.77;;;11.00;84.80;;;;;;5064934;28;20265;-56
2022/10/14 06:46:17;;;;;;;22.67;16.20;;;11.10;84.80;;;;;;5050156;28;20216;-53
2022/10/14 06:48:43;;;;;;;23.07;17.37;;;11.10;84.80;;;;;;5057092;28;20189;-57
2022/10/14 06:51:09;;;;;;;20.67;16.93;;;11.20;84.80;;;;;;5056931;28;20197;-56
2022/10/14 06:53:34;;;;;;;20.20;16.43;;;11.20;85.20;;;;;;5073553;28;20185;-55
2022/10/14 06:56:03;;;;;;;24.77;16.77;;;11.30;85.10;;;;;;5056924;28;20205;-53
2022/10/14 06:58:29;;;;;;;21.70;17.10;;;11.30;85.20;;;;;;5057710;28;20177;-56
2022/10/14 07:01:03;;;;;;;26.13;18.20;;;11.30;85.30;;;;;;5062177;28;20221;-56
2022/10/14 07:03:29;;;;;;;26.97;18.47;;;11.40;85.60;;;;;;5069801;28;20264;-57
2022/10/14 07:05:55;;;;;;;19.90;16.87;;;11.40;85.70;;;;;;5038093;28;20190;-56
2022/10/14 07:08:21;;;;;;;21.50;17.17;;;11.50;85.80;;;;;;5053273;28;20199;-54
2022/10/14 07:10:47;;;;;;;24.57;18.83;;;11.50;85.90;;;;;;5045728;28;20231;-53
2022/10/14 07:13:13;;;;;;;21.67;17.37;;;11.60;86.00;;;;;;5048708;28;20198;-55
2022/10/14 07:15:39;;;;;;;21.60;16.63;;;11.60;86.00;;;;;;5080160;28;20239;-55
2022/10/14 07:18:05;;;;;;;23.80;16.70;;;11.60;86.00;;;;;;5073193;28;20177;-57
2022/10/14 07:20:33;;;;;;;20.30;17.43;;;11.70;86.00;;;;;;5069033;28;20192;-55
2022/10/14 07:22:58;;;;;;;25.83;18.43;;;11.80;86.10;;;;;;5085302;28;20200;-56
2022/10/14 07:25:24;;;;;;;23.00;17.80;;;11.80;86.30;;;;;;5068374;28;20300;-55
2022/10/14 07:27:52;;;;;;;23.87;18.70;;;11.80;86.20;;;;;;5081475;28;20192;-57
2022/10/14 07:30:18;;;;;;;23.20;17.73;;;11.90;86.10;;;;;;5076022;28;20189;-56
2022/10/14 07:32:44;;;;;;;29.43;18.57;;;11.90;86.10;;;;;;5085064;28;20238;-56
2022/10/14 07:35:09;;;;;;;26.03;18.77;;;11.90;86.10;;;;;;5064420;28;20271;-57
2022/10/14 07:37:35;;;;;;;21.93;17.80;;;12.00;86.10;;;;;;5059235;28;20190;-57
2022/10/14 07:40:01;;;;;;;27.10;19.03;;;12.00;86.00;;;;;;5076364;28;20241;-57
2022/10/14 07:42:26;;;;;;;25.73;17.67;;;12.00;86.00;;;;;;5068853;28;20285;-57
2022/10/14 07:44:53;;;;;;;28.03;18.10;;;12.10;86.00;;;;;;5085481;28;20284;-53
2022/10/14 07:47:19;;;;;;;23.87;18.23;;;12.10;86.10;;;;;;5076165;28;20205;-57
2022/10/14 07:49:45;;;;;;;25.50;19.03;;;12.10;86.30;;;;;;5070419;28;20189;-55
2022/10/14 07:52:11;;;;;;;28.13;20.73;;;12.20;86.30;;;;;;5082412;28;20221;-55
2022/10/14 07:54:36;;;;;;;28.97;18.97;;;12.20;86.40;;;;;;5067899;28;20262;-57
2022/10/14 07:57:03;;;;;;;26.03;19.33;;;12.30;86.40;;;;;;5055527;28;20228;-56
2022/10/14 07:59:28;;;;;;;25.90;17.83;;;12.30;86.50;;;;;;5078304;28;20193;-56
2022/10/14 08:01:55;;;;;;;24.53;18.40;;;12.30;86.40;;;;;;5088666;28;20212;-55
2022/10/14 08:04:22;;;;;;;26.93;19.77;;;12.40;86.20;;;;;;5074100;28;20185;-56
2022/10/14 08:06:48;;;;;;;26.50;19.83;;;12.50;86.10;;;;;;5088706;28;20281;-56
2022/10/14 08:09:15;;;;;;;27.53;19.10;;;12.60;86.10;;;;;;5056681;28;20189;-54
2022/10/14 08:11:42;;;;;;;26.37;19.50;;;12.60;86.20;;;;;;5068733;28;20198;-55
2022/10/14 08:14:07;;;;;;;24.87;17.60;;;12.70;86.20;;;;;;5072650;28;20265;-53
2022/10/14 08:16:34;;;;;;;23.93;18.13;;;12.70;86.20;;;;;;5050522;28;20759;-55
2022/10/14 08:19:04;;;;;;;26.70;18.97;;;12.80;86.20;;;;;;5061248;28;20181;-56
2022/10/14 08:21:29;;;;;;;28.87;20.50;;;12.80;86.10;;;;;;5097636;28;20186;-53
2022/10/14 08:23:55;;;;;;;29.17;22.13;;;12.80;86.00;;;;;;5064614;28;20188;-59
2022/10/14 08:26:30;;;;;;;32.27;22.30;;;12.90;85.90;;;;;;5054746;28;20201;-58
2022/10/14 08:28:58;;;;;;;30.77;23.17;;;13.10;85.60;;;;;;5062669;28;20193;-59
2022/10/14 08:31:24;;;;;;;34.77;23.67;;;13.10;85.90;;;;;;5061304;28;20282;-59
2022/10/14 08:33:49;;;;;;;29.03;21.53;;;13.20;85.50;;;;;;5050759;28;20280;-59
2022/10/14 08:36:16;;;;;;;32.30;22.10;;;13.30;85.40;;;;;;5075056;28;20230;-59
2022/10/14 08:38:42;;;;;;;32.60;25.07;;;13.30;85.40;;;;;;5084122;28;20185;-59
2022/10/14 08:41:11;;;;;;;30.60;24.30;;;13.40;84.60;;;;;;5042007;28;20194;-59
2022/10/14 08:43:58;;;;;;;43.03;26.70;;;13.50;83.80;;;;;;5043762;28;20186;-59
2022/10/14 08:46:35;;;;;;;32.47;24.53;;;13.60;83.90;;;;;;5055329;28;20202;-59
2022/10/14 08:49:12;;;;;;;35.97;24.57;;;13.70;83.40;;;;;;5055828;28;20193;-59
2022/10/14 08:51:42;;;;;;;34.10;25.53;;;13.80;83.10;;;;;;5062719;28;20182;-59
2022/10/14 08:54:14;;;;;;;34.73;24.87;;;13.80;83.30;;;;;;5053355;28;20201;-59
2022/10/14 08:56:41;;;;;;;32.47;24.60;;;14.00;82.70;;;;;;5047989;28;20207;-59
2022/10/14 08:59:13;;;;;;;33.20;25.20;;;14.10;82.70;;;;;;5025927;28;20239;-59
2022/10/14 09:02:02;;;;;;;35.13;25.47;;;14.20;82.10;;;;;;5069852;28;20186;-59
2022/10/14 09:04:29;;;;;;;33.63;23.97;;;14.30;82.20;;;;;;5056392;28;20490;-59
2022/10/14 09:06:55;;;;;;;36.20;25.43;;;14.30;82.40;;;;;;5042753;28;20195;-59
2022/10/14 09:09:27;;;;;;;34.23;25.67;;;14.40;82.40;;;;;;5050723;28;20268;-59
2022/10/14 09:12:00;;;;;;;37.03;26.67;;;14.50;81.90;;;;;;5053648;28;20198;-59
2022/10/14 09:14:32;;;;;;;36.80;25.97;;;14.60;81.40;;;;;;5049519;28;20186;-59
2022/10/14 09:17:07;;;;;;;36.17;25.90;;;14.60;81.90;;;;;;5049057;28;20252;-59
2022/10/14 09:19:45;;;;;;;34.10;25.03;;;14.80;81.70;;;;;;5031131;28;20182;-59
2022/10/14 09:22:13;;;;;;;32.60;26.40;;;14.90;80.70;;;;;;5046430;28;20200;-59
2022/10/14 09:24:40;;;;;;;32.53;25.47;;;14.90;80.60;;;;;;5050145;28;20285;-59
2022/10/14 09:27:20;;;;;;;38.27;23.87;;;15.00;81.20;;;;;;5034901;28;20193;-59
2022/10/14 09:29:49;;;;;;;35.87;24.07;;;15.00;81.00;;;;;;5053774;28;20193;-59
2022/10/14 09:32:34;;;;;;;31.17;24.00;;;15.10;81.00;;;;;;5059339;28;20198;-59
2022/10/14 09:35:00;;;;;;;28.23;22.23;;;15.10;82.00;;;;;;5050285;28;20264;-59
2022/10/14 09:37:34;;;;;;;28.60;22.37;;;15.20;81.80;;;;;;5045885;28;20660;-59
2022/10/14 09:40:02;;;;;;;27.37;22.03;;;15.20;81.30;;;;;;5069764;28;20220;-59
2022/10/14 09:42:47;;;;;;;33.03;22.63;;;15.30;81.20;;;;;;5068181;28;20191;-59
2022/10/14 09:45:21;;;;;;;28.23;21.20;;;15.40;80.50;;;;;;5079447;28;20229;-59
2022/10/14 09:48:02;;;;;;;31.53;21.63;;;15.50;80.80;;;;;;5075192;28;20186;-59
2022/10/14 09:50:47;;;;;;;29.30;22.03;;;15.60;79.90;;;;;;5072389;28;20190;-59
2022/10/14 09:53:25;;;;;;;27.73;20.10;;;15.70;79.10;;;;;;5079269;28;20196;-59
2022/10/14 09:56:03;;;;;;;26.60;22.33;;;15.80;79.70;;;;;;5072591;28;20201;-61
2022/10/14 09:58:52;;;;;;;26.43;21.43;;;15.80;78.60;;;;;;5066336;28;20190;-61
2022/10/14 10:01:20;;;;;;;30.67;22.37;;;15.90;78.90;;;;;;5081593;28;20189;-61
2022/10/14 10:03:48;;;;;;;27.97;22.60;;;15.90;78.60;;;;;;5104550;28;20195;-61
2022/10/14 10:06:21;;;;;;;29.40;21.60;;;16.00;78.70;;;;;;5057773;28;20186;-59
2022/10/14 10:08:58;;;;;;;29.23;21.27;;;16.10;78.90;;;;;;5070208;28;20216;-59
2022/10/14 10:11:30;;;;;;;27.63;21.67;;;16.20;78.80;;;;;;5073074;28;20189;-59
2022/10/14 10:13:55;;;;;;;33.17;23.60;;;16.20;77.50;;;;;;5089836;28;20185;-59
2022/10/14 10:16:27;;;;;;;33.00;21.60;;;16.30;78.60;;;;;;5057648;28;20227;-59
2022/10/14 10:18:54;;;;;;;28.73;23.70;;;16.50;77.40;;;;;;5087318;28;20178;-60
2022/10/14 10:21:26;;;;;;;31.80;24.00;;;16.40;76.40;;;;;;5060862;28;20181;-61
2022/10/14 10:23:53;;;;;;;29.20;23.47;;;16.50;76.00;;;;;;5072397;28;20185;-60
2022/10/14 10:26:30;;;;;;;28.20;22.23;;;16.50;75.70;;;;;;5056012;28;20190;-60
2022/10/14 10:28:57;;;;;;;30.93;22.70;;;16.70;75.40;;;;;;5074302;28;20188;-59
2022/10/14 10:31:34;;;;;;;30.63;23.20;;;16.80;75.00;;;;;;5075321;28;20182;-58
2022/10/14 10:34:09;;;;;;;33.03;22.90;;;17.00;74.10;;;;;;5065192;28;20220;-59
2022/10/14 10:37:00;;;;;;;30.73;21.97;;;17.30;76.50;;;;;;5071978;28;20200;-59
2022/10/14 10:39:51;;;;;;;28.73;22.00;;;17.40;76.00;;;;;;5068763;28;20236;-59
2022/10/14 10:42:28;;;;;;;31.30;23.13;;;17.50;74.70;;;;;;5062309;28;20182;-59
2022/10/14 10:44:59;;;;;;;29.60;23.27;;;17.40;73.80;;;;;;5069357;28;20194;-59
2022/10/14 10:47:31;;;;;;;31.70;23.47;;;17.30;73.30;;;;;;5089215;28;20186;-59
2022/10/14 10:50:20;;;;;;;28.90;22.57;;;17.30;73.70;;;;;;5072980;28;20194;-60
2022/10/14 10:52:49;;;;;;;29.63;21.17;;;17.30;74.60;;;;;;5085787;28;20197;-60
2022/10/14 10:55:36;;;;;;;25.90;21.60;;;17.20;75.20;;;;;;5064347;28;20281;-60
2022/10/14 10:58:26;;;;;;;24.57;20.27;;;17.20;75.30;;;;;;5066586;28;20200;-60
2022/10/14 11:01:07;;;;;;;26.83;21.97;;;17.20;75.60;;;;;;5068183;28;20185;-59
2022/10/14 11:04:10;;;;;;;27.97;22.57;;;17.20;75.60;;;;;;5064665;28;20188;-59
2022/10/14 11:12:37;;;;;;;28.77;23.00;;;17.20;74.70;;;;;;5084542;28;20188;-59
2022/10/14 11:15:09;;;;;;;27.30;22.57;;;17.20;75.10;;;;;;5084673;28;20207;-59
2022/10/14 11:17:58;;;;;;;51.17;29.83;;;17.20;75.60;;;;;;5060919;28;20194;-59
2022/10/14 11:20:49;;;;;;;38.00;26.80;;;17.20;75.80;;;;;;5071625;28;20194;-60
2022/10/14 11:23:30;;;;;;;28.40;22.93;;;17.30;74.80;;;;;;5069663;28;20196;-60
2022/10/14 11:26:11;;;;;;;28.37;22.00;;;17.40;72.80;;;;;;5054494;28;20269;-60
2022/10/14 11:28:50;;;;;;;26.30;22.57;;;17.30;72.30;;;;;;5084973;28;20271;-60
2022/10/14 11:31:39;;;;;;;27.87;23.30;;;17.40;72.90;;;;;;5063417;28;20300;-60
2022/10/14 11:34:11;;;;;;;31.30;24.17;;;17.40;73.30;;;;;;5067307;28;20185;-60
2022/10/14 11:36:49;;;;;;;31.03;23.23;;;17.40;73.20;;;;;;5070586;28;20221;-60
2022/10/14 11:39:17;;;;;;;27.80;22.00;;;17.50;73.60;;;;;;5081652;28;20248;-60
2022/10/14 11:42:12;;;;;;;27.40;22.27;;;17.50;72.30;;;;;;5077394;28;20234;-60
2022/10/14 11:44:42;;;;;;;29.23;23.53;;;17.50;73.70;;;;;;5079833;28;20236;-60
2022/10/14 11:47:18;;;;;;;34.27;23.57;;;17.40;73.00;;;;;;5078773;28;20236;-60
2022/10/14 11:49:54;;;;;;;34.23;23.73;;;17.40;73.90;;;;;;5077060;28;20189;-60
2022/10/14 11:52:34;;;;;;;29.13;23.03;;;17.30;74.20;;;;;;5083769;28;20181;-60
2022/10/14 11:55:18;;;;;;;31.33;24.77;;;17.30;74.60;;;;;;5070538;28;20281;-60
2022/10/14 11:57:47;;;;;;;29.97;23.33;;;17.30;74.80;;;;;;5086856;28;20181;-60
2022/10/14 12:00:17;;;;;;;27.97;23.90;;;17.30;75.00;;;;;;5059198;28;20209;-60
2022/10/14 12:03:01;;;;;;;32.27;24.23;;;17.20;75.20;;;;;;5076679;28;20177;-59
2022/10/14 12:06:11;;;;;;;28.53;23.70;;;17.30;75.40;;;;;;5077635;28;20181;-59
2022/10/14 12:09:03;;;;;;;35.70;25.73;;;17.20;75.80;;;;;;5057972;28;20529;-60
2022/10/14 12:11:48;;;;;;;30.83;24.07;;;17.30;75.70;;;;;;5084257;28;20269;-60
2022/10/14 12:14:22;;;;;;;31.33;23.97;;;17.30;75.90;;;;;;5081735;28;20197;-61
2022/10/14 12:16:50;;;;;;;32.10;25.10;;;17.30;76.30;;;;;;5072968;28;20235;-61
2022/10/14 12:19:27;;;;;;;34.63;26.33;;;17.60;74.90;;;;;;5065519;28;20204;-60
2022/10/14 12:22:00;;;;;;;33.10;25.27;;;17.90;73.50;;;;;;5058630;28;20186;-60
2022/10/14 12:24:37;;;;;;;29.07;24.70;;;18.50;71.40;;;;;;5074545;28;20227;-59
2022/10/14 12:27:08;;;;;;;34.10;24.60;;;18.80;69.00;;;;;;5085523;28;20189;-58
2022/10/14 12:29:39;;;;;;;31.03;24.60;;;19.20;67.60;;;;;;5091233;28;20271;-59
2022/10/14 12:32:19;;;;;;;34.07;25.77;;;19.40;66.10;;;;;;5074781;28;20207;-58
2022/10/14 12:34:52;;;;;;;32.20;25.80;;;19.80;66.20;;;;;;5094284;28;20180;-59
2022/10/14 12:37:33;;;;;;;34.47;26.53;;;19.90;64.80;;;;;;5056525;28;20240;-59
2022/10/14 12:40:02;;;;;;;30.43;25.47;;;19.80;61.40;;;;;;5082946;28;20526;-60
2022/10/14 12:42:42;;;;;;;29.63;25.13;;;19.80;63.50;;;;;;5092669;28;20248;-60
2022/10/14 12:45:22;;;;;;;33.27;26.07;;;20.00;62.80;;;;;;5092151;28;20239;-59
2022/10/14 12:48:00;;;;;;;30.03;24.13;;;20.40;62.90;;;;;;5090574;28;20189;-60
2022/10/14 12:50:35;;;;;;;25.90;23.07;;;20.80;62.80;;;;;;5085242;28;20229;-60
2022/10/14 12:53:04;;;;;;;29.40;24.80;;;20.90;60.40;;;;;;5084527;28;20181;-59